Time;durP1;ratioP1;P1;durP2;ratioP2;P2;SDS_P1;SDS_P2;PMS_P1;PMS_P2;Temp;Humidity;BMP_temperature;BMP_pressure;BME280_temperature;BME280_humidity;BME280_pressure;Samples;Min_cycle;Max_cycle;Signal;HPM_P1;HPM_P2
2021/05/04 00:01:26;;;;;;;5.50;4.63;;;6.20;99.90;;;;;;5040924;28;20211;-67
2021/05/04 00:03:52;;;;;;;7.37;4.50;;;6.20;99.90;;;;;;5034739;28;20298;-68
2021/05/04 00:06:19;;;;;;;7.00;4.30;;;6.20;99.90;;;;;;5044556;28;20202;-67
2021/05/04 00:08:45;;;;;;;7.43;4.17;;;6.20;99.90;;;;;;5048824;28;20284;-68
2021/05/04 00:11:11;;;;;;;8.17;4.00;;;6.20;99.90;;;;;;5035292;28;20209;-67
2021/05/04 00:13:37;;;;;;;7.67;4.27;;;6.20;99.90;;;;;;5032588;28;20711;-67
2021/05/04 00:16:04;;;;;;;7.73;4.97;;;6.20;99.90;;;;;;5039920;28;20702;-68
2021/05/04 00:18:32;;;;;;;4.27;3.80;;;6.20;99.90;;;;;;5034650;28;20230;-68
2021/05/04 00:20:58;;;;;;;7.80;4.47;;;6.20;99.90;;;;;;5032241;28;20234;-67
2021/05/04 00:23:25;;;;;;;7.43;4.30;;;6.20;99.90;;;;;;5042597;28;20216;-66
2021/05/04 00:25:51;;;;;;;4.30;3.67;;;6.20;99.90;;;;;;5032824;28;20210;-67
2021/05/04 00:28:17;;;;;;;6.70;4.17;;;6.10;99.90;;;;;;5036032;28;20213;-67
2021/05/04 00:30:44;;;;;;;5.90;4.43;;;6.10;99.90;;;;;;5034494;28;20211;-68
2021/05/04 00:33:10;;;;;;;7.60;4.27;;;6.10;99.90;;;;;;5034746;28;20265;-68
2021/05/04 00:35:37;;;;;;;6.33;4.60;;;6.10;99.90;;;;;;5040268;28;20274;-68
2021/05/04 00:38:04;;;;;;;6.23;4.70;;;6.10;99.90;;;;;;5037629;28;20232;-68
2021/05/04 00:40:30;;;;;;;8.23;5.70;;;6.10;99.90;;;;;;5038404;28;20210;-68
2021/05/04 00:42:57;;;;;;;10.60;6.20;;;6.10;99.90;;;;;;5033145;28;20290;-68
2021/05/04 00:45:24;;;;;;;10.30;6.23;;;6.10;99.90;;;;;;5039518;28;20206;-67
2021/05/04 00:47:50;;;;;;;8.63;6.43;;;6.20;99.90;;;;;;5041152;28;20210;-68
2021/05/04 00:50:17;;;;;;;10.27;6.30;;;6.10;99.90;;;;;;5046327;28;20233;-67
2021/05/04 00:52:44;;;;;;;8.17;5.87;;;6.10;99.90;;;;;;5040479;28;20211;-68
2021/05/04 00:55:11;;;;;;;8.10;6.00;;;6.10;99.90;;;;;;5033502;28;20289;-67
2021/05/04 00:57:40;;;;;;;9.13;6.30;;;6.10;99.90;;;;;;5044441;28;20264;-67
2021/05/04 01:00:12;;;;;;;8.63;5.63;;;6.10;99.90;;;;;;5029085;28;20682;-67
2021/05/04 01:02:40;;;;;;;8.30;6.50;;;6.00;99.90;;;;;;5036950;28;20209;-67
2021/05/04 01:05:07;;;;;;;7.97;6.20;;;6.10;99.90;;;;;;5043617;28;20206;-67
2021/05/04 01:07:33;;;;;;;8.30;5.90;;;6.00;99.90;;;;;;5038430;28;20206;-70
2021/05/04 01:10:01;;;;;;;8.70;5.80;;;6.00;99.90;;;;;;5033384;28;20202;-68
2021/05/04 01:12:27;;;;;;;7.30;5.83;;;6.00;99.90;;;;;;5039330;28;20648;-68
2021/05/04 01:14:53;;;;;;;10.33;5.63;;;6.00;99.90;;;;;;5042715;28;20315;-68
2021/05/04 01:17:20;;;;;;;6.47;5.30;;;6.00;99.90;;;;;;5036112;28;20306;-67
2021/05/04 01:19:46;;;;;;;8.07;5.17;;;6.00;99.90;;;;;;5042134;28;20211;-66
2021/05/04 01:22:13;;;;;;;7.33;5.67;;;6.00;99.90;;;;;;5040008;28;20309;-67
2021/05/04 01:24:40;;;;;;;9.17;6.10;;;6.00;99.90;;;;;;5046578;28;20209;-67
2021/05/04 01:27:07;;;;;;;9.37;5.30;;;6.00;99.90;;;;;;5049155;28;20256;-68
2021/05/04 01:29:33;;;;;;;8.03;5.43;;;6.00;99.90;;;;;;5046116;28;20299;-67
2021/05/04 01:32:00;;;;;;;7.87;5.67;;;6.00;99.90;;;;;;5050030;28;20210;-68
2021/05/04 01:34:27;;;;;;;8.90;5.73;;;6.00;99.90;;;;;;5050140;28;20241;-68
2021/05/04 01:36:53;;;;;;;10.00;5.30;;;6.00;99.90;;;;;;5039308;28;20214;-68
2021/05/04 01:39:32;;;;;;;7.83;5.40;;;6.00;99.90;;;;;;5041456;28;20318;-68
2021/05/04 01:41:59;;;;;;;8.33;5.50;;;6.00;99.90;;;;;;5045023;28;20698;-68
2021/05/04 01:44:25;;;;;;;8.07;5.27;;;5.90;99.90;;;;;;5044562;28;20224;-67
2021/05/04 01:46:51;;;;;;;7.73;4.90;;;5.90;99.90;;;;;;5049445;28;20292;-68
2021/05/04 01:49:18;;;;;;;6.43;4.70;;;5.90;99.90;;;;;;5035457;28;20212;-68
2021/05/04 01:51:44;;;;;;;8.50;5.37;;;5.90;99.90;;;;;;5036686;28;20275;-68
2021/05/04 01:54:10;;;;;;;7.90;5.40;;;5.80;99.90;;;;;;5042834;28;20206;-68
2021/05/04 01:56:38;;;;;;;9.17;5.57;;;5.80;99.90;;;;;;5038869;28;20725;-68
2021/05/04 01:59:05;;;;;;;9.97;5.40;;;5.80;99.90;;;;;;5036417;28;20234;-67
2021/05/04 02:01:32;;;;;;;8.37;5.20;;;5.70;99.90;;;;;;5034486;28;20570;-68
2021/05/04 02:03:58;;;;;;;9.03;5.27;;;5.70;99.90;;;;;;5048757;28;20216;-68
2021/05/04 02:06:25;;;;;;;10.73;6.30;;;5.70;99.90;;;;;;5042784;28;20210;-68
2021/05/04 02:08:51;;;;;;;9.33;5.07;;;5.70;99.90;;;;;;5041379;28;20199;-69
2021/05/04 02:11:18;;;;;;;7.70;5.53;;;5.70;99.90;;;;;;5036365;28;20589;-67
2021/05/04 02:13:45;;;;;;;9.47;6.20;;;5.70;99.90;;;;;;5033250;28;20254;-67
2021/05/04 02:16:11;;;;;;;14.00;6.47;;;5.60;99.90;;;;;;5029416;28;20313;-67
2021/05/04 02:18:37;;;;;;;8.70;5.73;;;5.70;99.90;;;;;;5031470;28;20647;-67
2021/05/04 02:21:04;;;;;;;8.80;5.87;;;5.70;99.90;;;;;;5044127;28;20305;-68
2021/05/04 02:23:31;;;;;;;8.47;5.60;;;5.70;99.90;;;;;;5044522;28;20761;-69
2021/05/04 02:25:57;;;;;;;8.20;5.17;;;5.70;99.90;;;;;;5044626;28;20212;-67
2021/05/04 02:28:24;;;;;;;8.90;6.00;;;5.70;99.90;;;;;;5031994;28;20209;-68
2021/05/04 02:30:51;;;;;;;7.83;5.47;;;5.70;99.90;;;;;;5035344;28;20704;-68
2021/05/04 02:33:17;;;;;;;8.20;5.70;;;5.70;99.90;;;;;;5037500;28;20245;-67
2021/05/04 02:35:44;;;;;;;9.30;5.23;;;5.70;99.90;;;;;;5036911;28;20296;-68
2021/05/04 02:38:10;;;;;;;8.63;5.43;;;5.70;99.90;;;;;;5033907;28;20679;-67
2021/05/04 02:40:36;;;;;;;7.83;5.80;;;5.70;99.90;;;;;;5038355;28;20214;-67
2021/05/04 02:43:03;;;;;;;7.87;5.43;;;5.70;99.90;;;;;;5044368;28;20210;-67
2021/05/04 02:45:29;;;;;;;10.13;5.67;;;5.60;99.90;;;;;;5039256;28;20209;-67
2021/05/04 02:47:56;;;;;;;10.03;5.77;;;5.70;99.90;;;;;;5034780;28;20248;-67
2021/05/04 02:50:23;;;;;;;9.43;6.10;;;5.70;99.90;;;;;;5043191;28;20301;-67
2021/05/04 02:52:49;;;;;;;8.17;5.83;;;5.60;99.90;;;;;;5034512;28;20210;-67
2021/05/04 02:55:16;;;;;;;9.00;5.37;;;5.60;99.90;;;;;;5042834;28;20633;-67
2021/05/04 02:57:43;;;;;;;8.23;5.87;;;5.60;99.90;;;;;;5032810;28;20237;-68
2021/05/04 03:00:10;;;;;;;7.27;5.23;;;5.60;99.90;;;;;;5043665;28;20593;-68
2021/05/04 03:02:37;;;;;;;8.60;5.47;;;5.50;99.90;;;;;;5036642;28;20217;-68
2021/05/04 03:05:05;;;;;;;8.43;5.60;;;5.50;99.90;;;;;;5037222;28;20207;-67
2021/05/04 03:07:31;;;;;;;10.70;6.23;;;5.50;99.90;;;;;;5043013;28;20202;-68
2021/05/04 03:09:58;;;;;;;7.83;5.17;;;5.50;99.90;;;;;;5033163;28;20661;-67
2021/05/04 03:12:24;;;;;;;7.67;5.33;;;5.50;99.90;;;;;;5034110;28;20213;-67
2021/05/04 03:14:50;;;;;;;8.23;5.10;;;5.50;99.90;;;;;;5035491;28;20805;-66
2021/05/04 03:17:17;;;;;;;10.73;6.13;;;5.50;99.90;;;;;;5035298;28;20199;-68
2021/05/04 03:19:43;;;;;;;8.53;5.57;;;5.50;99.90;;;;;;5036037;28;20310;-67
2021/05/04 03:22:10;;;;;;;9.33;6.37;;;5.50;99.90;;;;;;5044252;28;20292;-67
2021/05/04 03:24:37;;;;;;;7.90;5.37;;;5.60;99.90;;;;;;5037513;28;20209;-67
2021/05/04 03:27:03;;;;;;;7.43;5.73;;;5.60;99.90;;;;;;5047080;28;20246;-67
2021/05/04 03:29:29;;;;;;;8.63;5.13;;;5.60;99.90;;;;;;5048434;28;20202;-67
2021/05/04 03:31:56;;;;;;;9.40;6.23;;;5.70;99.90;;;;;;5043495;28;20220;-67
2021/05/04 03:34:22;;;;;;;8.47;5.53;;;5.70;99.90;;;;;;5043429;28;20235;-66
2021/05/04 03:36:48;;;;;;;8.63;5.60;;;5.70;99.90;;;;;;5040367;28;20199;-67
2021/05/04 03:39:16;;;;;;;9.80;5.60;;;5.80;99.90;;;;;;5038791;28;20305;-68
2021/05/04 03:41:42;;;;;;;9.20;6.47;;;5.80;99.90;;;;;;5038441;28;20203;-67
2021/05/04 03:44:08;;;;;;;9.33;6.00;;;5.80;99.90;;;;;;5052895;28;20202;-66
2021/05/04 03:46:35;;;;;;;7.93;5.70;;;5.90;99.90;;;;;;5044447;28;20220;-68
2021/05/04 03:49:01;;;;;;;8.83;5.40;;;5.90;99.90;;;;;;5048383;28;20341;-67
2021/05/04 03:51:27;;;;;;;9.87;5.73;;;6.00;99.90;;;;;;5042707;28;20266;-67
2021/05/04 03:53:54;;;;;;;7.37;5.30;;;6.10;99.90;;;;;;5050848;28;20317;-66
2021/05/04 03:56:21;;;;;;;9.80;5.50;;;6.10;99.90;;;;;;5040596;28;20301;-66
2021/05/04 03:58:47;;;;;;;8.43;5.47;;;6.10;99.90;;;;;;5041658;28;20263;-68
2021/05/04 04:01:14;;;;;;;6.90;5.13;;;6.10;99.90;;;;;;5037311;28;20330;-66
2021/05/04 04:03:40;;;;;;;9.80;5.57;;;6.20;99.90;;;;;;5035960;28;20297;-67
2021/05/04 04:06:06;;;;;;;8.60;5.83;;;6.30;99.90;;;;;;5045520;28;20207;-68
2021/05/04 04:08:33;;;;;;;12.57;6.23;;;6.40;99.90;;;;;;5048194;28;20301;-67
2021/05/04 04:10:59;;;;;;;8.23;5.03;;;6.40;99.90;;;;;;5033566;28;20214;-67
2021/05/04 04:13:27;;;;;;;6.33;4.70;;;6.50;99.90;;;;;;5036918;28;20237;-67
2021/05/04 04:15:53;;;;;;;7.03;5.57;;;6.50;99.90;;;;;;5046077;28;20206;-67
2021/05/04 04:18:19;;;;;;;9.83;5.70;;;6.60;99.90;;;;;;5040068;28;20244;-67
2021/05/04 04:20:46;;;;;;;9.33;5.17;;;6.70;99.90;;;;;;5039924;28;20222;-67
2021/05/04 04:23:12;;;;;;;8.73;5.30;;;6.80;99.90;;;;;;5037175;28;20206;-67
2021/05/04 04:25:38;;;;;;;7.60;5.37;;;6.90;99.90;;;;;;5037029;28;20203;-68
2021/05/04 04:28:05;;;;;;;11.37;5.00;;;6.90;99.90;;;;;;5032541;28;20297;-66
2021/05/04 04:30:32;;;;;;;6.87;4.97;;;6.90;99.90;;;;;;5032251;28;20222;-68
2021/05/04 04:32:59;;;;;;;6.97;4.97;;;7.00;99.90;;;;;;5036352;28;20254;-68
2021/05/04 04:35:25;;;;;;;10.73;5.17;;;7.00;99.90;;;;;;5034007;28;20221;-67
2021/05/04 04:37:51;;;;;;;7.40;5.33;;;7.10;99.90;;;;;;5033529;28;20233;-67
2021/05/04 04:40:18;;;;;;;8.77;5.03;;;7.10;99.90;;;;;;5037387;28;20723;-68
2021/05/04 04:42:44;;;;;;;9.70;5.50;;;7.20;99.90;;;;;;5026315;28;20662;-68
2021/05/04 04:45:12;;;;;;;7.90;5.53;;;7.30;99.90;;;;;;5033016;28;20237;-68
2021/05/04 04:47:39;;;;;;;8.90;5.30;;;7.30;99.90;;;;;;5040772;28;20636;-68
2021/05/04 04:50:07;;;;;;;12.13;5.60;;;7.40;99.90;;;;;;5034881;28;20217;-68
2021/05/04 04:52:33;;;;;;;9.20;5.50;;;7.50;99.90;;;;;;5036996;28;20245;-67
2021/05/04 04:54:59;;;;;;;8.60;5.60;;;7.60;99.90;;;;;;5032379;28;20210;-68
2021/05/04 04:57:27;;;;;;;8.83;5.50;;;7.60;99.90;;;;;;5042035;28;20698;-67
2021/05/04 04:59:53;;;;;;;9.10;5.20;;;7.70;99.90;;;;;;5039287;28;20241;-67
2021/05/04 05:02:19;;;;;;;11.73;5.87;;;7.70;99.90;;;;;;5041751;28;20621;-67
2021/05/04 05:04:49;;;;;;;9.10;5.73;;;7.80;99.90;;;;;;5043188;28;20289;-67
2021/05/04 05:07:16;;;;;;;7.10;5.27;;;7.70;99.90;;;;;;5038398;28;20214;-67
2021/05/04 05:09:45;;;;;;;8.77;6.10;;;7.70;99.90;;;;;;5045391;28;20661;-68
2021/05/04 05:12:11;;;;;;;10.40;5.40;;;7.70;99.90;;;;;;5035062;28;20202;-67
2021/05/04 05:14:39;;;;;;;11.00;5.47;;;7.70;99.90;;;;;;5045479;28;20276;-67
2021/05/04 05:17:06;;;;;;;9.63;5.17;;;7.80;99.90;;;;;;5044541;28;20206;-67
2021/05/04 05:19:33;;;;;;;9.87;5.17;;;7.80;99.90;;;;;;5033427;28;20321;-67
2021/05/04 05:22:02;;;;;;;7.27;5.10;;;7.90;99.90;;;;;;5038848;28;20234;-69
2021/05/04 05:24:29;;;;;;;9.83;5.87;;;7.90;99.90;;;;;;5032291;28;20265;-68
2021/05/04 05:26:55;;;;;;;12.90;5.90;;;8.00;99.90;;;;;;5032792;28;20215;-68
2021/05/04 05:29:22;;;;;;;11.10;5.40;;;8.10;99.90;;;;;;5046024;28;20307;-67
2021/05/04 05:31:48;;;;;;;9.50;5.77;;;8.20;99.90;;;;;;5045910;28;20206;-68
2021/05/04 05:34:14;;;;;;;8.63;5.90;;;8.30;99.90;;;;;;5036620;28;20609;-69
2021/05/04 05:36:40;;;;;;;8.90;5.60;;;8.40;99.90;;;;;;5034749;28;20743;-68
2021/05/04 05:39:08;;;;;;;9.23;5.47;;;8.50;99.90;;;;;;5037152;28;20218;-68
2021/05/04 05:41:34;;;;;;;9.30;5.23;;;8.60;99.90;;;;;;5030621;28;20289;-67
2021/05/04 05:44:00;;;;;;;7.53;5.03;;;8.70;99.90;;;;;;5039100;28;20737;-67
2021/05/04 05:46:30;;;;;;;10.07;5.27;;;8.80;99.90;;;;;;5035565;28;20206;-68
2021/05/04 05:48:57;;;;;;;9.30;5.33;;;8.90;99.90;;;;;;5042256;28;20662;-66
2021/05/04 05:51:23;;;;;;;6.60;4.87;;;9.00;99.90;;;;;;5030739;28;20217;-67
2021/05/04 05:53:50;;;;;;;9.03;5.63;;;9.10;99.90;;;;;;5030930;28;20236;-66
2021/05/04 05:56:17;;;;;;;7.87;4.87;;;9.20;99.90;;;;;;5039843;28;20663;-69
2021/05/04 05:58:44;;;;;;;7.33;4.87;;;9.30;99.90;;;;;;5037403;28;20226;-71
2021/05/04 06:01:10;;;;;;;10.27;4.87;;;9.40;99.90;;;;;;5033424;28;20218;-70
2021/05/04 06:03:38;;;;;;;5.03;4.53;;;9.40;99.90;;;;;;5033410;28;20206;-69
2021/05/04 06:06:04;;;;;;;10.70;4.83;;;9.60;99.90;;;;;;5044352;28;20322;-71
2021/05/04 06:08:31;;;;;;;7.53;5.30;;;9.70;99.90;;;;;;5039552;28;20253;-70
2021/05/04 06:10:57;;;;;;;9.07;4.70;;;9.80;99.90;;;;;;5038527;28;20206;-69
2021/05/04 06:13:24;;;;;;;7.27;4.90;;;9.90;99.90;;;;;;5036998;28;20313;-71
2021/05/04 06:15:51;;;;;;;5.80;4.00;;;10.00;99.90;;;;;;5043643;28;20206;-71
2021/05/04 06:18:18;;;;;;;7.23;4.73;;;10.20;99.90;;;;;;5042091;28;20233;-70
2021/05/04 06:20:44;;;;;;;5.83;4.50;;;10.30;99.90;;;;;;5034483;28;20294;-69
2021/05/04 06:23:10;;;;;;;6.23;4.37;;;10.50;99.90;;;;;;5033566;28;20202;-70
2021/05/04 06:25:37;;;;;;;6.73;4.03;;;10.50;99.90;;;;;;5037590;28;20250;-70
2021/05/04 06:28:05;;;;;;;6.77;4.27;;;10.60;99.50;;;;;;5037017;28;20212;-70
2021/05/04 06:30:34;;;;;;;5.13;3.83;;;10.80;98.80;;;;;;5034229;28;20214;-72
2021/05/04 06:33:17;;;;;;;5.33;4.40;;;10.80;97.60;;;;;;5043993;28;20273;-72
2021/05/04 06:35:48;;;;;;;7.70;3.73;;;10.90;96.80;;;;;;5034753;28;20203;-75
2021/05/04 06:38:16;;;;;;;5.93;3.73;;;11.00;96.80;;;;;;5039948;28;20253;-78
2021/05/04 06:40:47;;;;;;;4.80;3.73;;;11.20;96.10;;;;;;5036037;28;20246;-74
2021/05/04 06:43:13;;;;;;;5.63;3.60;;;11.30;95.10;;;;;;5028011;28;20203;-73
2021/05/04 06:45:43;;;;;;;6.07;3.40;;;11.40;94.30;;;;;;5036605;28;20295;-76
2021/05/04 06:48:10;;;;;;;6.43;3.67;;;11.50;93.20;;;;;;5034407;28;20356;-71
2021/05/04 06:50:36;;;;;;;6.30;3.50;;;11.70;92.40;;;;;;5035227;28;20207;-71
2021/05/04 06:53:03;;;;;;;4.20;3.60;;;11.80;91.60;;;;;;5037222;28;20214;-72
2021/05/04 06:55:30;;;;;;;6.27;3.50;;;11.90;91.00;;;;;;5033246;28;20248;-73
2021/05/04 06:57:56;;;;;;;5.60;3.43;;;12.00;90.10;;;;;;5037271;28;20254;-74
2021/05/04 07:00:23;;;;;;;4.33;3.10;;;12.10;88.00;;;;;;5038162;28;20930;-73
2021/05/04 07:02:51;;;;;;;3.80;3.07;;;12.20;86.00;;;;;;5037749;28;20202;-71
2021/05/04 07:05:18;;;;;;;5.60;3.10;;;12.30;83.80;;;;;;5041797;28;20206;-72
2021/05/04 07:07:45;;;;;;;4.73;3.33;;;12.40;82.50;;;;;;5036025;28;20709;-71
2021/05/04 07:10:12;;;;;;;5.83;3.17;;;12.50;80.80;;;;;;5043732;28;20294;-73
2021/05/04 07:12:38;;;;;;;5.13;3.03;;;12.60;79.00;;;;;;5037387;28;20210;-73
2021/05/04 07:15:06;;;;;;;4.67;3.17;;;12.70;77.60;;;;;;5033665;28;20842;-70
2021/05/04 07:17:32;;;;;;;3.43;2.90;;;12.80;76.50;;;;;;5045467;28;20221;-74
2021/05/04 07:20:00;;;;;;;5.43;2.83;;;12.90;75.10;;;;;;5040377;28;20354;-74
2021/05/04 07:22:27;;;;;;;4.20;3.23;;;13.00;72.90;;;;;;5034669;28;20285;-73
2021/05/04 07:24:55;;;;;;;5.57;3.00;;;13.10;71.70;;;;;;5038597;28;20206;-74
2021/05/04 07:27:22;;;;;;;3.43;2.57;;;13.30;71.00;;;;;;5039374;28;20213;-72
2021/05/04 07:29:49;;;;;;;3.97;2.93;;;13.40;69.10;;;;;;5036939;28;20211;-71
2021/05/04 07:32:17;;;;;;;3.80;2.50;;;13.50;67.70;;;;;;5038809;28;20302;-72
2021/05/04 07:34:43;;;;;;;4.07;2.50;;;13.60;67.30;;;;;;5035388;28;20238;-73
2021/05/04 07:37:11;;;;;;;2.83;2.40;;;13.70;66.50;;;;;;5037355;28;20696;-72
2021/05/04 07:39:38;;;;;;;8.60;3.00;;;13.80;65.30;;;;;;5039693;28;20309;-71
2021/05/04 07:42:05;;;;;;;3.40;2.80;;;13.90;64.80;;;;;;5038645;28;20237;-72
2021/05/04 07:44:34;;;;;;;3.73;2.67;;;14.00;63.90;;;;;;5032168;28;20218;-73
2021/05/04 07:47:01;;;;;;;4.50;2.70;;;14.10;63.30;;;;;;5044513;28;20214;-67
2021/05/04 07:49:33;;;;;;;4.00;2.77;;;14.20;62.60;;;;;;5038311;28;20582;-68
2021/05/04 07:52:00;;;;;;;3.83;2.70;;;14.20;61.80;;;;;;5047393;28;20210;-68
2021/05/04 07:54:28;;;;;;;2.90;2.60;;;14.30;60.80;;;;;;5042730;28;20287;-70
2021/05/04 07:56:54;;;;;;;4.97;3.23;;;14.40;59.80;;;;;;5040251;28;20217;-70
2021/05/04 07:59:20;;;;;;;4.83;3.07;;;14.30;58.20;;;;;;5036809;28;20230;-69
2021/05/04 08:01:47;;;;;;;6.07;2.93;;;14.40;58.50;;;;;;5037481;28;20202;-70
2021/05/04 08:04:14;;;;;;;7.13;2.27;;;14.60;58.60;;;;;;5036716;28;20257;-69
2021/05/04 08:06:40;;;;;;;3.23;2.80;;;14.70;57.60;;;;;;5044360;28;20920;-69
2021/05/04 08:09:07;;;;;;;3.17;2.80;;;14.90;57.30;;;;;;5037735;28;20294;-69
2021/05/04 08:11:35;;;;;;;3.83;2.40;;;15.00;57.00;;;;;;5035319;28;20622;-69
2021/05/04 08:14:02;;;;;;;3.77;2.40;;;15.20;56.50;;;;;;5035489;28;20246;-70
2021/05/04 08:16:31;;;;;;;3.87;2.40;;;15.20;55.10;;;;;;5046008;28;20548;-70
2021/05/04 08:18:57;;;;;;;6.93;2.90;;;15.40;54.90;;;;;;5035782;28;20227;-70
2021/05/04 08:21:25;;;;;;;3.17;2.60;;;15.40;53.20;;;;;;5034603;28;20583;-69
2021/05/04 08:23:52;;;;;;;4.57;2.57;;;15.50;53.40;;;;;;5034377;28;20218;-70
2021/05/04 08:26:19;;;;;;;3.43;2.43;;;15.50;52.80;;;;;;5037731;28;20194;-70
2021/05/04 08:28:48;;;;;;;4.03;2.57;;;15.50;52.70;;;;;;5035026;28;20289;-69
2021/05/04 08:31:14;;;;;;;4.00;2.53;;;15.60;52.20;;;;;;5033541;28;20604;-71
2021/05/04 08:33:40;;;;;;;3.63;2.30;;;15.70;51.80;;;;;;5034349;28;20332;-70
2021/05/04 08:36:07;;;;;;;4.43;2.47;;;15.70;51.80;;;;;;5032370;28;20211;-71
2021/05/04 08:38:33;;;;;;;4.60;2.27;;;15.70;51.20;;;;;;5034401;28;20318;-70
2021/05/04 08:41:01;;;;;;;2.90;2.20;;;15.80;51.20;;;;;;5040011;28;20203;-70
2021/05/04 08:43:32;;;;;;;3.53;2.37;;;15.90;50.70;;;;;;5040486;28;20686;-70
2021/05/04 08:46:01;;;;;;;4.97;2.37;;;16.10;49.70;;;;;;5043997;28;20206;-69
2021/05/04 08:48:29;;;;;;;5.83;2.43;;;16.10;49.50;;;;;;5041204;28;20645;-69
2021/05/04 08:50:58;;;;;;;4.30;1.83;;;16.30;50.10;;;;;;5038793;28;20670;-69
2021/05/04 08:53:25;;;;;;;4.23;2.40;;;16.40;48.60;;;;;;5036008;28;20229;-69
2021/05/04 08:55:51;;;;;;;3.43;2.60;;;16.60;48.00;;;;;;5037045;28;20688;-69
2021/05/04 08:58:18;;;;;;;3.90;2.40;;;16.80;47.80;;;;;;5045489;28;20758;-69
2021/05/04 09:00:44;;;;;;;4.43;2.37;;;16.90;47.10;;;;;;5044824;28;20659;-69
2021/05/04 09:03:14;;;;;;;2.43;2.20;;;16.90;46.40;;;;;;5046290;28;20662;-70
2021/05/04 09:05:45;;;;;;;5.30;2.20;;;17.00;46.40;;;;;;5037321;28;20211;-68
2021/05/04 09:08:32;;;;;;;3.33;2.23;;;17.10;45.80;;;;;;5031826;28;20559;-70
2021/05/04 09:11:25;;;;;;;4.07;2.40;;;17.20;45.90;;;;;;5035074;28;20207;-70
2021/05/04 09:13:57;;;;;;;3.20;2.23;;;17.30;45.90;;;;;;5046363;28;20241;-70
2021/05/04 09:16:36;;;;;;;2.60;2.10;;;17.40;45.70;;;;;;5037617;28;20225;-71
2021/05/04 09:19:15;;;;;;;2.87;1.90;;;17.50;44.20;;;;;;5034870;28;20214;-70
2021/05/04 09:21:43;;;;;;;2.63;1.90;;;17.50;44.70;;;;;;5039904;28;20261;-72
2021/05/04 09:24:26;;;;;;;3.07;2.03;;;17.60;43.70;;;;;;5037855;28;20225;-71
2021/05/04 09:27:05;;;;;;;3.50;2.13;;;17.70;43.20;;;;;;5022983;28;20290;-69
2021/05/04 09:29:33;;;;;;;3.67;2.57;;;17.70;43.30;;;;;;5036622;28;20218;-69
2021/05/04 09:32:28;;;;;;;3.37;1.90;;;17.80;43.00;;;;;;5035012;28;20242;-70
2021/05/04 09:34:57;;;;;;;2.85;1.90;;;17.90;42.50;;;;;;5020479;28;20285;-70
2021/05/04 09:37:26;;;;;;;2.83;1.73;;;17.90;42.40;;;;;;5028646;28;20298;-69
2021/05/04 09:39:53;;;;;;;3.17;2.03;;;18.10;42.40;;;;;;5032751;28;20218;-70
2021/05/04 09:42:20;;;;;;;2.90;1.97;;;18.20;42.70;;;;;;5035639;28;20294;-70
2021/05/04 09:44:48;;;;;;;3.75;2.42;;;18.20;41.10;;;;;;5035329;28;20341;-70
2021/05/04 09:47:21;;;;;;;3.08;2.13;;;18.20;42.00;;;;;;5033412;28;20214;-69
2021/05/04 09:49:48;;;;;;;7.97;3.00;;;18.20;42.30;;;;;;5034867;28;20222;-70
2021/05/04 09:52:35;;;;;;;4.25;2.08;;;18.30;42.30;;;;;;5034830;28;20217;-69
2021/05/04 09:55:07;;;;;;;3.20;2.37;;;18.40;42.40;;;;;;5041410;28;20209;-69
2021/05/04 09:57:36;;;;;;;6.75;2.30;;;18.40;42.40;;;;;;5038209;28;20669;-69
2021/05/04 10:00:06;;;;;;;3.30;2.10;;;18.70;42.80;;;;;;5034756;28;20235;-69
2021/05/04 10:02:34;;;;;;;2.40;1.97;;;18.90;42.50;;;;;;5040730;28;20261;-70
2021/05/04 10:05:01;;;;;;;3.05;2.08;;;19.10;41.30;;;;;;5038874;28;20718;-69
2021/05/04 10:07:31;;;;;;;3.08;2.22;;;19.30;40.70;;;;;;5038414;28;20203;-69
2021/05/04 10:09:59;;;;;;;4.32;2.30;;;19.40;39.80;;;;;;5033786;28;20202;-70
2021/05/04 10:12:28;;;;;;;2.30;2.10;;;19.50;40.10;;;;;;5038644;28;20266;-70
2021/05/04 10:14:58;;;;;;;3.20;2.78;;;19.70;40.10;;;;;;5038930;28;20219;-70
2021/05/04 10:17:25;;;;;;;2.60;1.98;;;19.70;39.80;;;;;;5018297;28;20206;-71
2021/05/04 10:19:52;;;;;;;3.15;2.20;;;19.60;39.40;;;;;;5021869;28;20302;-71
2021/05/04 10:22:22;;;;;;;4.10;2.05;;;19.60;39.60;;;;;;5033672;28;20677;-71
2021/05/04 10:24:51;;;;;;;2.95;2.50;;;19.70;40.30;;;;;;5027763;28;20206;-69
2021/05/04 10:27:20;;;;;;;2.95;1.70;;;19.80;39.20;;;;;;5037155;28;20210;-72
2021/05/04 10:29:51;;;;;;;5.03;2.30;;;19.60;38.80;;;;;;5029691;28;20264;-72
2021/05/04 10:32:47;;;;;;;4.28;1.98;;;19.40;38.80;;;;;;5035245;28;20305;-71
2021/05/04 10:35:35;;;;;;;5.18;1.92;;;19.10;38.30;;;;;;5037950;28;20263;-70
2021/05/04 10:38:03;;;;;;;3.03;1.97;;;18.90;38.90;;;;;;5025233;28;20264;-71
2021/05/04 10:40:34;;;;;;;3.00;2.33;;;18.70;38.80;;;;;;5041122;28;20245;-72
2021/05/04 10:43:02;;;;;;;2.65;2.05;;;18.40;39.00;;;;;;5038610;28;21000;-72
2021/05/04 10:45:39;;;;;;;3.73;2.20;;;18.10;39.80;;;;;;5037098;28;20209;-71
2021/05/04 10:48:08;;;;;;;3.57;2.20;;;17.90;40.10;;;;;;5031561;28;20245;-70
2021/05/04 10:50:47;;;;;;;2.65;2.25;;;17.70;40.50;;;;;;5038330;28;20214;-70
2021/05/04 10:53:15;;;;;;;3.40;2.40;;;17.60;41.30;;;;;;5040499;28;20292;-73
2021/05/04 10:56:09;;;;;;;2.47;2.23;;;17.50;41.60;;;;;;5036361;28;20583;-74
2021/05/04 10:58:48;;;;;;;3.40;2.30;;;17.40;42.00;;;;;;5038738;28;20316;-72
2021/05/04 11:01:18;;;;;;;3.47;2.10;;;17.20;42.20;;;;;;5037196;28;20689;-71
2021/05/04 11:03:52;;;;;;;3.00;2.40;;;17.00;42.50;;;;;;5043263;28;20292;-71
2021/05/04 11:06:41;;;;;;;3.17;2.40;;;16.80;43.00;;;;;;5044019;28;20213;-73
2021/05/04 11:09:10;;;;;;;3.20;2.10;;;16.70;43.30;;;;;;5044786;28;20226;-71
2021/05/04 11:11:43;;;;;;;3.20;2.10;;;16.70;44.00;;;;;;5046410;28;20206;-70
2021/05/04 11:14:29;;;;;;;2.50;2.20;;;16.70;44.30;;;;;;5035969;28;20306;-72
2021/05/04 11:17:10;;;;;;;3.07;2.17;;;16.70;44.20;;;;;;5037499;28;20212;-69
2021/05/04 11:19:40;;;;;;;3.67;2.53;;;16.60;44.10;;;;;;5023348;28;20215;-70
2021/05/04 11:22:19;;;;;;;3.43;2.40;;;16.60;44.20;;;;;;5044867;28;20658;-73
2021/05/04 11:24:48;;;;;;;4.77;2.40;;;16.50;44.40;;;;;;5041435;28;20202;-72
2021/05/04 11:27:27;;;;;;;2.47;2.17;;;16.40;44.70;;;;;;5037791;28;20249;-71
2021/05/04 11:29:56;;;;;;;2.50;2.30;;;16.30;44.80;;;;;;5035583;28;20206;-70
2021/05/04 11:32:24;;;;;;;2.20;1.83;;;16.30;45.00;;;;;;5043891;28;20732;-70
2021/05/04 11:34:59;;;;;;;4.30;2.20;;;16.30;44.80;;;;;;5035773;28;20690;-70
2021/05/04 11:37:43;;;;;;;1.93;1.73;;;16.50;44.90;;;;;;5038328;28;20222;-72
2021/05/04 11:40:15;;;;;;;2.50;1.93;;;16.90;45.70;;;;;;5032721;28;20232;-70
2021/05/04 11:42:44;;;;;;;2.63;1.87;;;17.30;45.00;;;;;;5028011;28;20207;-71
2021/05/04 11:45:12;;;;;;;2.10;1.80;;;17.70;44.00;;;;;;5039489;28;20322;-72
2021/05/04 11:47:40;;;;;;;1.60;1.50;;;17.80;43.30;;;;;;5039221;28;20211;-72
2021/05/04 11:50:10;;;;;;;5.70;1.93;;;18.00;43.50;;;;;;5029457;28;20207;-72
2021/05/04 11:52:38;;;;;;;2.80;1.90;;;18.00;43.50;;;;;;5032136;28;20246;-71
2021/05/04 11:55:10;;;;;;;2.42;2.00;;;17.90;43.50;;;;;;5032896;28;20211;-72
2021/05/04 11:57:39;;;;;;;2.00;1.75;;;17.80;43.80;;;;;;5027507;28;20270;-71
2021/05/04 12:00:08;;;;;;;3.07;1.97;;;17.70;44.10;;;;;;5039070;28;20289;-68
2021/05/04 12:02:36;;;;;;;2.30;1.80;;;17.60;44.30;;;;;;5024488;28;20206;-71
2021/05/04 12:05:03;;;;;;;5.20;2.10;;;17.60;44.00;;;;;;5034561;28;20210;-72
2021/05/04 12:07:34;;;;;;;3.15;1.92;;;17.60;44.40;;;;;;5038089;28;20621;-71
2021/05/04 12:10:00;;;;;;;2.90;2.20;;;17.50;44.20;;;;;;5035151;28;20203;-69
2021/05/04 12:12:40;;;;;;;2.30;1.67;;;17.40;44.30;;;;;;5035771;28;20222;-70
2021/05/04 12:15:09;;;;;;;1.97;1.60;;;17.20;44.30;;;;;;5045915;28;20338;-69
2021/05/04 12:17:35;;;;;;;2.10;1.90;;;17.00;44.80;;;;;;5038867;28;20264;-69
2021/05/04 12:20:12;;;;;;;2.30;2.10;;;16.80;45.30;;;;;;5037126;28;20246;-69
2021/05/04 12:22:43;;;;;;;3.20;1.50;;;16.70;46.00;;;;;;5041752;28;20217;-70
2021/05/04 12:25:11;;;;;;;3.83;2.10;;;16.70;46.40;;;;;;5035607;28;20207;-67
2021/05/04 12:27:38;;;;;;;2.73;2.17;;;16.80;46.50;;;;;;5036426;28;20217;-69
2021/05/04 12:30:07;;;;;;;3.47;2.33;;;16.90;46.10;;;;;;5033037;28;20256;-70
2021/05/04 12:32:34;;;;;;;4.07;2.30;;;16.90;45.70;;;;;;5040994;28;20753;-69
2021/05/04 12:35:20;;;;;;;3.47;1.87;;;16.90;45.90;;;;;;5041604;28;20214;-69
2021/05/04 12:37:48;;;;;;;3.37;2.43;;;16.90;46.40;;;;;;5038637;28;20247;-69
2021/05/04 12:40:17;;;;;;;9.53;1.93;;;16.80;45.80;;;;;;5046555;28;20693;-70
2021/05/04 12:42:46;;;;;;;4.07;2.27;;;16.70;46.20;;;;;;5040924;28;20214;-71
2021/05/04 12:45:13;;;;;;;3.20;2.90;;;16.60;46.70;;;;;;5037903;28;20276;-68
2021/05/04 12:47:52;;;;;;;2.93;2.57;;;16.50;46.80;;;;;;5043902;28;20213;-69
2021/05/04 12:50:29;;;;;;;4.40;2.60;;;16.50;46.80;;;;;;5036482;28;20575;-70
2021/05/04 12:52:55;;;;;;;3.77;2.73;;;16.50;47.30;;;;;;5037134;28;20216;-69
2021/05/04 12:55:21;;;;;;;5.00;2.77;;;16.40;47.00;;;;;;5033233;28;20272;-69
2021/05/04 12:58:06;;;;;;;3.20;2.80;;;16.30;47.30;;;;;;5041881;28;20290;-69